createdAt,value
2018-07-02T00:01:04.268Z,62.40
2018-07-02T00:03:42.176Z,62.30
2018-07-02T00:06:45.022Z,61.70
2018-07-02T00:09:22.001Z,61.70
2018-07-02T00:11:59.571Z,61.80
2018-07-02T00:14:37.621Z,62.60
2018-07-02T00:19:52.252Z,62.40
2018-07-02T00:22:29.555Z,62.70
2018-07-02T00:25:06.128Z,63.00
2018-07-02T00:27:43.044Z,63.60
2018-07-02T00:30:20.843Z,65.00
2018-07-02T00:32:57.980Z,64.40
2018-07-02T00:35:35.189Z,63.50
2018-07-02T00:38:13.202Z,63.30
2018-07-02T00:43:27.265Z,63.70
2018-07-02T00:46:06.825Z,64.40
2018-07-02T00:48:44.584Z,64.90
2018-07-02T00:51:22.229Z,64.50
2018-07-02T00:53:58.489Z,63.80
2018-07-02T00:59:13.872Z,63.50
2018-07-02T01:01:51.971Z,64.20
2018-07-02T01:04:28.942Z,64.90
2018-07-02T01:07:06.742Z,64.60
2018-07-02T01:09:45.856Z,64.80
2018-07-02T01:12:22.331Z,65.30
2018-07-02T01:15:00.957Z,65.20
2018-07-02T01:17:38.957Z,64.70
2018-07-02T01:20:16.030Z,64.70
2018-07-02T01:25:31.296Z,65.30
2018-07-02T01:28:09.942Z,65.90
2018-07-02T01:30:46.586Z,66.60
2018-07-02T01:33:25.403Z,66.80
2018-07-02T01:36:03.862Z,67.10
2018-07-02T01:43:57.583Z,68.40
2018-07-02T01:46:35.999Z,68.70
2018-07-02T01:49:14.183Z,68.10
2018-07-02T01:51:52.236Z,68.20
2018-07-02T01:54:28.905Z,68.80
2018-07-02T01:57:07.569Z,68.40
2018-07-02T01:59:44.456Z,68.70
2018-07-02T02:02:22.972Z,68.70
2018-07-02T02:04:59.596Z,68.90
2018-07-02T02:07:36.100Z,68.90
2018-07-02T02:10:13.196Z,69.00
2018-07-02T02:12:50.579Z,69.40
2018-07-02T02:15:29.389Z,69.40
2018-07-02T02:18:06.679Z,69.80
2018-07-02T02:20:43.454Z,70.90
2018-07-02T02:23:21.843Z,70.30
2018-07-02T02:25:58.821Z,70.50
2018-07-02T02:28:35.617Z,70.00
2018-07-02T02:33:50.201Z,70.30
2018-07-02T02:36:28.093Z,70.50
2018-07-02T02:39:06.316Z,70.50
2018-07-02T02:41:42.856Z,70.40
2018-07-02T02:44:20.300Z,71.50
2018-07-02T02:46:56.256Z,70.70
2018-07-02T02:49:33.609Z,70.60
2018-07-02T02:52:10.045Z,70.70
2018-07-02T02:54:46.906Z,70.60
2018-07-02T02:57:26.172Z,70.50
2018-07-02T03:00:02.814Z,70.90
2018-07-02T03:02:41.410Z,70.70
2018-07-02T03:05:19.416Z,70.90
2018-07-02T03:07:56.673Z,70.50
2018-07-02T03:10:33.436Z,70.30
2018-07-02T03:13:10.627Z,70.60
2018-07-02T03:15:47.894Z,70.60
2018-07-02T03:18:24.657Z,70.50
2018-07-02T03:21:01.880Z,70.70
2018-07-02T03:26:20.414Z,71.30
2018-07-02T03:28:58.678Z,71.10
2018-07-02T03:31:35.434Z,71.60
2018-07-02T03:34:12.296Z,71.60
2018-07-02T03:36:49.312Z,71.60
2018-07-02T03:39:26.242Z,71.60
2018-07-02T03:42:03.025Z,71.40
2018-07-02T03:44:40.192Z,71.00
2018-07-02T03:47:17.840Z,70.60
2018-07-02T03:49:57.001Z,70.60
2018-07-02T03:52:33.005Z,70.60
2018-07-02T03:55:09.304Z,70.50
2018-07-02T04:00:22.772Z,70.90
2018-07-02T04:03:01.041Z,70.40
2018-07-02T04:05:39.645Z,70.10
2018-07-02T04:08:18.585Z,70.10
2018-07-02T04:10:55.711Z,70.20
2018-07-02T04:13:32.941Z,70.10
2018-07-02T04:18:48.504Z,70.50
2018-07-02T04:21:26.674Z,69.40
2018-07-02T04:24:04.593Z,68.70
2018-07-02T04:26:43.698Z,69.20
2018-07-02T04:29:20.804Z,68.80
2018-07-02T04:32:04.710Z,68.90
2018-07-02T04:34:41.915Z,68.10
2018-07-02T04:39:58.345Z,67.40
2018-07-02T04:42:37.036Z,68.00
2018-07-02T04:45:14.186Z,67.80
2018-07-02T04:47:50.996Z,67.30
2018-07-02T04:50:30.209Z,67.10
2018-07-02T04:53:07.740Z,67.80
2018-07-02T04:55:44.467Z,67.30
2018-07-02T04:58:25.326Z,67.30
2018-07-02T05:01:06.090Z,67.20
2018-07-02T05:03:44.576Z,66.80
2018-07-02T05:06:21.392Z,66.80
2018-07-02T05:08:57.788Z,67.10
2018-07-02T05:11:35.100Z,66.90
2018-07-02T05:14:12.789Z,65.90
2018-07-02T05:16:49.745Z,65.70
2018-07-02T05:19:26.737Z,65.30
2018-07-02T05:24:40.082Z,61.90
2018-07-02T05:27:18.667Z,60.00
2018-07-02T05:29:55.636Z,58.60
2018-07-02T05:32:33.796Z,57.20
2018-07-02T05:35:12.048Z,57.70
2018-07-02T05:37:49.174Z,57.90
2018-07-02T05:40:26.604Z,57.60
2018-07-02T05:43:03.021Z,58.40
2018-07-02T05:45:41.400Z,59.40
2018-07-02T05:48:20.045Z,60.50
2018-07-02T05:51:00.021Z,61.30
2018-07-02T05:53:37.798Z,61.10
2018-07-02T05:56:15.429Z,61.30
2018-07-02T05:58:52.829Z,61.60
2018-07-02T06:01:30.634Z,60.60
2018-07-02T06:04:07.197Z,60.10
2018-07-02T06:06:44.744Z,60.40
2018-07-02T06:09:23.740Z,59.80
2018-07-02T06:12:01.238Z,60.40
2018-07-02T06:14:38.607Z,60.60
2018-07-02T06:17:17.288Z,60.00
2018-07-02T06:19:55.477Z,58.60
2018-07-02T06:22:32.841Z,58.70
2018-07-02T06:25:11.434Z,58.40
2018-07-02T06:27:49.072Z,58.80
2018-07-02T06:30:27.156Z,59.30
2018-07-02T06:33:04.609Z,59.30
2018-07-02T06:35:41.192Z,58.90
2018-07-02T06:38:19.219Z,58.90
2018-07-02T06:40:55.539Z,59.40
2018-07-02T06:43:32.694Z,58.20
2018-07-02T06:46:10.457Z,58.00
2018-07-02T06:48:47.457Z,57.50
2018-07-02T06:51:24.928Z,57.60
2018-07-02T06:54:01.701Z,56.70
2018-07-02T06:56:38.291Z,57.20
2018-07-02T06:59:16.597Z,56.10
2018-07-02T07:01:54.730Z,56.00
2018-07-02T07:04:32.130Z,54.90
2018-07-02T07:07:10.765Z,54.90
2018-07-02T07:09:47.750Z,53.50
2018-07-02T07:17:39.914Z,53.00
2018-07-02T07:20:17.370Z,53.40
2018-07-02T07:22:54.707Z,54.50
2018-07-02T07:28:09.800Z,53.70
2018-07-02T07:30:47.004Z,53.00
2018-07-02T07:33:24.909Z,52.00
2018-07-02T07:36:03.821Z,50.80
2018-07-02T07:38:42.284Z,51.00
2018-07-02T07:41:19.818Z,50.00
2018-07-02T07:43:56.989Z,50.00
2018-07-02T07:46:34.983Z,50.40
2018-07-02T07:49:11.577Z,52.40
2018-07-02T07:51:49.065Z,50.70
2018-07-02T07:54:26.957Z,48.90
2018-07-02T07:57:05.725Z,46.60
2018-07-02T07:59:42.983Z,45.50
2018-07-02T08:02:21.214Z,46.20
2018-07-02T08:04:58.829Z,43.70
2018-07-02T08:07:35.785Z,40.60
2018-07-02T08:10:13.881Z,37.20
2018-07-02T08:12:51.780Z,34.50
2018-07-02T08:15:28.454Z,31.50
2018-07-02T08:18:06.827Z,29.70
2018-07-02T08:20:43.309Z,28.70
2018-07-02T08:23:22.321Z,28.80
2018-07-02T08:25:59.088Z,27.40
2018-07-02T08:28:36.028Z,27.20
2018-07-02T08:31:13.994Z,28.40
2018-07-02T08:33:51.291Z,28.20
2018-07-02T08:36:28.227Z,27.80
2018-07-02T08:39:09.691Z,27.60
2018-07-02T08:41:47.609Z,27.60
2018-07-02T08:44:24.530Z,27.80
2018-07-02T08:47:01.422Z,29.70
2018-07-02T08:49:39.324Z,31.00
2018-07-02T08:52:17.673Z,32.40
2018-07-02T08:54:56.235Z,29.40
2018-07-02T08:57:34.805Z,26.90
2018-07-02T09:00:13.083Z,25.20
2018-07-02T09:02:51.701Z,24.50
2018-07-02T09:05:30.420Z,24.50
2018-07-02T09:08:06.830Z,24.90
2018-07-02T09:10:44.937Z,24.80
2018-07-02T09:13:22.761Z,23.90
2018-07-02T09:16:01.106Z,23.30
2018-07-02T09:18:39.019Z,23.40
2018-07-02T09:21:17.096Z,24.30
2018-07-02T09:23:55.773Z,23.80
2018-07-02T09:26:33.892Z,22.50
2018-07-02T09:29:10.309Z,21.90
2018-07-02T09:31:47.877Z,22.90
2018-07-02T09:34:26.017Z,23.30
2018-07-02T09:37:03.772Z,24.30
2018-07-02T09:39:41.865Z,24.40
2018-07-02T09:42:19.407Z,24.60
2018-07-02T09:44:57.259Z,23.90
2018-07-02T09:47:35.387Z,25.30
2018-07-02T09:50:14.064Z,24.70
2018-07-02T09:52:51.533Z,22.90
2018-07-02T09:55:28.883Z,24.30
2018-07-02T09:58:06.971Z,23.10
2018-07-02T10:00:43.938Z,23.90
2018-07-02T10:03:21.675Z,23.30
2018-07-02T10:05:58.569Z,22.20
2018-07-02T10:08:36.573Z,23.50
2018-07-02T10:11:13.611Z,23.20
2018-07-02T10:13:50.668Z,24.10
2018-07-02T10:16:28.490Z,25.30
2018-07-02T10:19:08.664Z,25.70
2018-07-02T10:21:49.906Z,25.80
2018-07-02T10:24:32.118Z,25.40
2018-07-02T10:27:17.199Z,24.40
2018-07-02T10:29:57.116Z,22.80
2018-07-02T10:32:36.576Z,24.30
2018-07-02T10:35:14.809Z,23.90
2018-07-02T10:37:53.432Z,24.30
2018-07-02T10:40:30.965Z,24.70
2018-07-02T10:43:09.412Z,24.60
2018-07-02T10:45:48.346Z,24.70
2018-07-02T10:48:27.092Z,24.60
2018-07-02T10:51:03.872Z,24.20
2018-07-02T10:53:41.331Z,23.90
2018-07-02T10:56:19.014Z,23.70
2018-07-02T10:58:57.267Z,23.80
2018-07-02T11:01:34.128Z,22.50
2018-07-02T11:04:12.568Z,22.50
2018-07-02T11:06:48.576Z,22.50
2018-07-02T11:09:25.553Z,21.70
2018-07-02T11:12:03.188Z,22.10
2018-07-02T11:14:41.534Z,23.40
2018-07-02T11:17:18.941Z,22.40
2018-07-02T11:19:57.372Z,24.00
2018-07-02T11:22:33.562Z,21.70
2018-07-02T11:25:11.548Z,22.10
2018-07-02T11:27:49.965Z,22.40
2018-07-02T11:30:28.525Z,22.80
2018-07-02T11:33:06.373Z,22.00
2018-07-02T11:35:43.303Z,22.20
2018-07-02T11:38:21.026Z,22.50
2018-07-02T11:40:57.394Z,22.50
2018-07-02T11:43:33.699Z,21.30
2018-07-02T11:46:11.860Z,21.90
2018-07-02T11:48:48.888Z,22.50
2018-07-02T11:51:27.204Z,23.10
2018-07-02T11:54:05.830Z,21.90
2018-07-02T11:56:43.592Z,21.70
2018-07-02T11:59:22.037Z,22.40
2018-07-02T12:02:01.266Z,23.10
2018-07-02T12:04:39.336Z,22.20
2018-07-02T12:07:16.098Z,22.80
2018-07-02T12:09:52.233Z,22.90
2018-07-02T12:12:31.327Z,22.80
2018-07-02T12:15:07.865Z,21.40
2018-07-02T12:17:47.111Z,21.40
2018-07-02T12:20:24.836Z,21.20
2018-07-02T12:23:02.241Z,22.00
2018-07-02T12:25:40.812Z,21.60
2018-07-02T12:28:18.820Z,21.70
2018-07-02T12:30:55.635Z,21.70
2018-07-02T12:33:32.494Z,20.70
2018-07-02T12:36:08.821Z,20.20
2018-07-02T12:38:45.955Z,20.70
2018-07-02T12:41:22.269Z,21.20
2018-07-02T12:44:00.139Z,20.20
2018-07-02T12:46:38.817Z,19.80
2018-07-02T12:49:17.561Z,19.80
2018-07-02T12:51:56.271Z,20.20
2018-07-02T12:54:34.551Z,20.30
2018-07-02T12:57:11.216Z,20.20
2018-07-02T12:59:48.251Z,20.30
2018-07-02T13:02:26.294Z,21.00
2018-07-02T13:05:03.962Z,20.50
2018-07-02T13:07:40.985Z,20.20
2018-07-02T13:10:18.659Z,20.90
2018-07-02T13:12:55.885Z,20.90
2018-07-02T13:15:31.850Z,21.00
2018-07-02T13:18:08.237Z,19.70
2018-07-02T13:20:46.041Z,20.20
2018-07-02T13:23:23.765Z,20.60
2018-07-02T13:26:01.488Z,21.10
2018-07-02T13:28:38.025Z,19.70
2018-07-02T13:31:16.345Z,20.30
2018-07-02T13:33:54.908Z,20.00
2018-07-02T13:36:32.752Z,20.50
2018-07-02T13:39:10.686Z,21.10
2018-07-02T13:41:49.402Z,21.00
2018-07-02T13:44:27.810Z,20.10
2018-07-02T13:47:05.181Z,20.80
2018-07-02T13:49:42.815Z,22.70
2018-07-02T13:52:20.503Z,23.10
2018-07-02T13:54:58.812Z,22.30
2018-07-02T13:57:36.515Z,23.10
2018-07-02T14:00:13.345Z,22.20
2018-07-02T14:02:50.745Z,22.50
2018-07-02T14:05:27.159Z,22.30
2018-07-02T14:08:05.424Z,22.20
2018-07-02T14:10:43.510Z,22.60
2018-07-02T14:13:20.594Z,22.50
2018-07-02T14:15:59.527Z,21.60
2018-07-02T14:18:36.776Z,22.20
2018-07-02T14:21:14.704Z,22.70
2018-07-02T14:23:51.758Z,22.80
2018-07-02T14:26:29.991Z,22.60
2018-07-02T14:29:08.977Z,21.90
2018-07-02T14:31:47.748Z,23.10
2018-07-02T14:37:02.122Z,23.90
2018-07-02T14:39:39.479Z,23.60
2018-07-02T14:42:16.874Z,25.00
2018-07-02T14:44:54.401Z,23.40
2018-07-02T14:47:38.930Z,23.70
2018-07-02T14:50:15.771Z,23.20
2018-07-02T14:52:52.628Z,23.80
2018-07-02T14:55:30.025Z,23.40
2018-07-02T14:58:08.159Z,23.90
2018-07-02T15:00:45.490Z,24.10
2018-07-02T15:03:23.613Z,23.80
2018-07-02T15:06:01.589Z,24.20
2018-07-02T15:08:39.345Z,24.30
2018-07-02T15:11:16.363Z,24.40
2018-07-02T15:13:53.584Z,24.00
2018-07-02T15:16:30.304Z,24.20
2018-07-02T15:19:07.265Z,24.70
2018-07-02T15:21:43.916Z,23.90
2018-07-02T15:24:20.788Z,24.70
2018-07-02T15:26:57.769Z,24.80
2018-07-02T15:29:34.306Z,24.60
2018-07-02T15:32:12.033Z,24.40
2018-07-02T15:34:49.468Z,24.80
2018-07-02T15:37:27.619Z,24.70
2018-07-02T15:40:06.463Z,24.80
2018-07-02T15:42:43.823Z,24.70
2018-07-02T15:45:21.780Z,25.20
2018-07-02T15:47:59.290Z,24.70
2018-07-02T15:50:37.551Z,24.70
2018-07-02T15:53:16.795Z,25.20
2018-07-02T15:55:53.525Z,25.00
2018-07-02T15:58:31.995Z,25.70
2018-07-02T16:01:10.124Z,25.10
2018-07-02T16:03:48.626Z,25.20
2018-07-02T16:06:25.965Z,24.90
2018-07-02T16:09:03.862Z,25.00
2018-07-02T16:11:42.124Z,24.70
2018-07-02T16:14:19.364Z,25.30
2018-07-02T16:16:56.385Z,25.80
2018-07-02T16:19:34.317Z,26.60
2018-07-02T16:22:11.643Z,26.70
2018-07-02T16:24:50.271Z,26.60
2018-07-02T16:27:26.729Z,26.30
2018-07-02T16:30:07.242Z,26.80
2018-07-02T16:32:44.529Z,26.60
2018-07-02T16:35:23.059Z,26.90
2018-07-02T16:38:05.903Z,26.70
2018-07-02T16:40:43.113Z,26.90
2018-07-02T16:43:20.988Z,26.70
2018-07-02T16:46:01.844Z,26.50
2018-07-02T16:48:38.463Z,26.40
2018-07-02T16:51:17.884Z,26.30
2018-07-02T16:56:32.353Z,26.80
2018-07-02T16:59:10.801Z,26.60
2018-07-02T17:01:48.318Z,27.00
2018-07-02T17:04:25.500Z,27.30
2018-07-02T17:07:02.633Z,27.40
2018-07-02T17:09:38.558Z,27.10
2018-07-02T17:12:15.625Z,27.50
2018-07-02T17:14:52.256Z,27.40
2018-07-02T17:17:28.223Z,27.80
2018-07-02T17:20:05.466Z,28.10
2018-07-02T17:22:43.104Z,28.50
2018-07-02T17:27:57.018Z,28.50
2018-07-02T17:30:35.376Z,28.30
2018-07-02T17:33:11.577Z,27.90
2018-07-02T17:35:48.184Z,28.50
2018-07-02T17:38:25.989Z,28.50
2018-07-02T17:41:02.200Z,28.50
2018-07-02T17:43:38.476Z,28.40
2018-07-02T17:46:17.727Z,29.00
2018-07-02T17:48:55.054Z,29.30
2018-07-02T17:51:34.047Z,29.10
2018-07-02T17:54:11.218Z,29.30
2018-07-02T17:56:48.621Z,29.00
2018-07-02T17:59:25.843Z,29.40
2018-07-02T18:02:02.432Z,29.60
2018-07-02T18:04:39.592Z,29.70
2018-07-02T18:07:17.911Z,29.30
2018-07-02T18:09:55.283Z,28.90
2018-07-02T18:12:31.718Z,29.40
2018-07-02T18:15:08.317Z,29.20
2018-07-02T18:17:45.468Z,29.70
2018-07-02T18:20:23.633Z,30.30
2018-07-02T18:23:01.508Z,30.00
2018-07-02T18:25:40.136Z,30.60
2018-07-02T18:28:16.675Z,32.50
2018-07-02T18:30:53.028Z,31.20
2018-07-02T18:33:30.041Z,31.20
2018-07-02T18:36:07.408Z,30.60
2018-07-02T18:38:43.701Z,31.00
2018-07-02T18:41:21.560Z,32.20
2018-07-02T18:43:59.397Z,32.80
2018-07-02T18:46:37.417Z,32.50
2018-07-02T18:49:14.920Z,32.20
2018-07-02T18:51:54.566Z,33.30
2018-07-02T18:54:33.493Z,33.00
2018-07-02T18:57:14.328Z,33.30
2018-07-02T18:59:51.199Z,32.90
2018-07-02T19:02:29.040Z,33.00
2018-07-02T19:05:07.587Z,34.10
2018-07-02T19:07:46.211Z,33.90
2018-07-02T19:10:23.288Z,34.30
2018-07-02T19:13:01.339Z,34.10
2018-07-02T19:15:40.370Z,34.40
2018-07-02T19:18:17.092Z,34.30
2018-07-02T19:20:55.188Z,34.90
2018-07-02T19:23:35.705Z,35.70
2018-07-02T19:26:14.563Z,36.20
2018-07-02T19:28:51.330Z,36.50
2018-07-02T19:31:28.448Z,36.40
2018-07-02T19:34:07.230Z,36.80
2018-07-02T19:36:44.855Z,37.00
2018-07-02T19:39:20.929Z,37.90
2018-07-02T19:41:57.413Z,38.10
2018-07-02T19:44:34.150Z,38.60
2018-07-02T19:47:12.541Z,39.20
2018-07-02T19:49:51.479Z,39.80
2018-07-02T19:52:28.663Z,40.10
2018-07-02T19:55:07.645Z,40.40
2018-07-02T19:57:44.434Z,41.20
2018-07-02T20:00:23.832Z,41.90
2018-07-02T20:03:03.615Z,42.70
2018-07-02T20:05:41.621Z,43.10
2018-07-02T20:08:19.150Z,44.20
2018-07-02T20:11:00.838Z,44.30
2018-07-02T20:13:38.915Z,44.80
2018-07-02T20:16:17.366Z,45.90
2018-07-02T20:18:54.130Z,45.40
2018-07-02T20:21:33.876Z,45.90
2018-07-02T20:24:10.553Z,46.00
2018-07-02T20:26:47.770Z,45.60
2018-07-02T20:29:24.309Z,45.90
2018-07-02T20:32:02.214Z,46.00
2018-07-02T20:34:40.744Z,47.00
2018-07-02T20:37:18.257Z,47.10
2018-07-02T20:39:59.640Z,45.90
2018-07-02T20:42:39.030Z,45.60
2018-07-02T20:45:17.671Z,44.80
2018-07-02T20:47:56.855Z,45.60
2018-07-02T20:50:33.636Z,45.10
2018-07-02T20:53:11.665Z,45.30
2018-07-02T20:55:55.152Z,46.20
2018-07-02T20:58:33.455Z,47.10
2018-07-02T21:01:11.807Z,47.90
2018-07-02T21:03:51.231Z,48.10
2018-07-02T21:06:29.386Z,47.70
2018-07-02T21:09:09.593Z,46.30
2018-07-02T21:11:45.637Z,45.80
2018-07-02T21:14:23.721Z,45.50
2018-07-02T21:17:00.368Z,45.50
2018-07-02T21:19:36.941Z,45.70
2018-07-02T21:22:13.243Z,45.70
2018-07-02T21:24:49.734Z,45.90
2018-07-02T21:27:26.081Z,45.90
2018-07-02T21:30:02.693Z,47.00
2018-07-02T21:32:39.324Z,48.20
2018-07-02T21:35:16.168Z,48.80
2018-07-02T21:38:00.144Z,49.50
2018-07-02T21:40:37.273Z,50.20
2018-07-02T21:43:15.282Z,50.70
2018-07-02T21:45:52.974Z,49.90
2018-07-02T21:48:30.829Z,48.90
2018-07-02T21:51:08.328Z,48.10
2018-07-02T21:53:45.884Z,47.00
2018-07-02T21:56:23.650Z,46.70
2018-07-02T21:59:01.057Z,46.60
2018-07-02T22:01:38.243Z,48.10
2018-07-02T22:04:16.437Z,48.20
2018-07-02T22:06:53.045Z,49.00
2018-07-02T22:09:30.887Z,49.70
2018-07-02T22:12:08.072Z,49.80
2018-07-02T22:14:44.678Z,49.90
2018-07-02T22:17:21.847Z,49.80
2018-07-02T22:19:57.966Z,48.70
2018-07-02T22:22:34.538Z,48.90
2018-07-02T22:25:11.825Z,49.00
2018-07-02T22:27:48.342Z,48.70
2018-07-02T22:30:26.585Z,48.90
2018-07-02T22:33:03.952Z,48.70
2018-07-02T22:35:40.944Z,48.40
2018-07-02T22:38:18.741Z,48.10
2018-07-02T22:40:55.385Z,48.10
2018-07-02T22:43:31.535Z,48.10
2018-07-02T22:46:08.203Z,48.40
2018-07-02T22:48:45.279Z,48.80
2018-07-02T22:51:24.090Z,49.00
2018-07-02T22:54:01.017Z,49.80
2018-07-02T22:56:38.466Z,49.50
2018-07-02T22:59:16.590Z,49.30
2018-07-02T23:01:55.305Z,49.60
2018-07-02T23:04:32.172Z,49.40
2018-07-02T23:07:09.317Z,51.00
2018-07-02T23:09:46.945Z,48.90
2018-07-02T23:12:24.302Z,50.60
2018-07-02T23:15:01.346Z,50.70
2018-07-02T23:17:38.045Z,51.60
2018-07-02T23:20:15.498Z,51.80
2018-07-02T23:23:01.575Z,50.70
2018-07-02T23:25:38.828Z,50.60
2018-07-02T23:28:16.150Z,50.60
2018-07-02T23:30:54.245Z,50.10
2018-07-02T23:33:31.384Z,49.90
2018-07-02T23:36:07.967Z,50.00
2018-07-02T23:38:45.418Z,49.80
2018-07-02T23:41:22.661Z,49.90
2018-07-02T23:43:59.304Z,50.20
2018-07-02T23:46:36.685Z,51.80
2018-07-02T23:49:13.400Z,51.50
2018-07-02T23:51:51.276Z,51.60
2018-07-02T23:54:27.305Z,51.90
2018-07-02T23:57:05.412Z,51.80
2018-07-02T23:59:41.336Z,52.00
